Terminal Aerodrome Forecast
Issued by NWS State College, PA

Home | Current Version | Previous Version | Text Only | Print | Product List | Glossary On
Versions: 1 2 3 4 5 6 7 8 9 10 11 12 13 14 15 16 17 18 19 20 21 22 23 24 25 26 27 28 29 30
000
FTUS41 KCTP 160941 AAA
TAFMDT
TAF AMD
KMDT 160941Z 1610/1706 11004KT P6SM OVC014
     FM161100 VRB02KT 2SM -SN BR OVC009
     FM161400 14002KT 4SM -SN BR OVC015
     FM161800 14002KT 4SM -SN BR OVC025
     FM162300 00000KT 1/2SM SN FG OVC015=

USA.gov is the U.S. government's official web portal to all federal, state and local government web resources and services.